createdAt,value
2022-11-09T00:01:43.907Z,46.53
2022-11-09T00:04:13.011Z,40.58
2022-11-09T00:06:42.007Z,49.10
2022-11-09T00:09:11.086Z,50.85
2022-11-09T00:11:40.149Z,49.17
2022-11-09T00:14:14.847Z,50.45
2022-11-09T00:16:43.949Z,48.17
2022-11-09T00:19:14.490Z,49.55
2022-11-09T00:21:43.463Z,46.78
2022-11-09T00:24:12.794Z,45.75
2022-11-09T00:26:41.831Z,42.20
2022-11-09T00:29:10.999Z,49.33
2022-11-09T00:31:40.066Z,42.67
2022-11-09T00:34:09.066Z,42.05
2022-11-09T00:36:38.015Z,41.95
2022-11-09T00:39:06.954Z,43.38
2022-11-09T00:41:36.034Z,34.25
2022-11-09T00:44:05.087Z,32.63
2022-11-09T00:46:34.913Z,41.20
2022-11-09T00:49:04.030Z,46.63
2022-11-09T00:51:33.105Z,37.13
2022-11-09T00:54:02.133Z,35.15
2022-11-09T00:56:31.093Z,38.58
2022-11-09T00:59:00.130Z,36.33
2022-11-09T01:01:29.687Z,39.10
2022-11-09T01:03:58.739Z,39.20
2022-11-09T01:06:28.056Z,30.60
2022-11-09T01:08:57.096Z,33.65
2022-11-09T01:11:26.311Z,29.10
2022-11-09T01:13:55.613Z,32.03
2022-11-09T01:16:25.863Z,28.83
2022-11-09T01:18:57.161Z,24.08
2022-11-09T01:21:27.226Z,27.27
2022-11-09T01:23:59.416Z,26.83
2022-11-09T01:26:28.481Z,32.13
2022-11-09T01:28:57.499Z,28.90
2022-11-09T01:31:26.638Z,30.77
2022-11-09T01:33:56.087Z,29.20
2022-11-09T01:36:26.154Z,24.13
2022-11-09T01:38:55.414Z,26.77
2022-11-09T01:41:27.193Z,29.30
2022-11-09T01:44:15.807Z,27.60
2022-11-09T01:46:50.742Z,25.13
2022-11-09T01:49:48.059Z,24.70
2022-11-09T01:52:26.320Z,22.10
2022-11-09T01:55:14.971Z,26.75
2022-11-09T01:58:15.919Z,35.97
2022-11-09T02:00:48.832Z,27.88
2022-11-09T02:03:31.067Z,27.38
2022-11-09T02:06:02.944Z,27.17
2022-11-09T02:08:32.311Z,26.00
2022-11-09T02:11:12.395Z,27.92
2022-11-09T02:13:49.614Z,23.25
2022-11-09T02:16:20.070Z,25.08
2022-11-09T02:19:06.965Z,26.30
2022-11-09T02:21:36.628Z,28.45
2022-11-09T02:24:05.870Z,27.33
2022-11-09T02:26:41.674Z,24.58
2022-11-09T02:29:13.990Z,34.08
2022-11-09T02:31:49.307Z,20.83
2022-11-09T02:34:21.210Z,23.42
2022-11-09T02:36:50.418Z,19.98
2022-11-09T02:39:26.466Z,24.55
2022-11-09T02:41:57.618Z,20.20
2022-11-09T02:44:29.953Z,20.60
2022-11-09T02:46:58.933Z,20.90
2022-11-09T02:49:28.007Z,22.35
2022-11-09T02:51:57.104Z,23.98
2022-11-09T02:54:26.137Z,24.50
2022-11-09T02:56:55.163Z,23.08
2022-11-09T02:59:24.184Z,23.42
2022-11-09T03:01:53.130Z,20.27
2022-11-09T03:04:22.001Z,19.13
2022-11-09T03:06:51.015Z,18.77
2022-11-09T03:09:23.165Z,21.45
2022-11-09T03:11:52.124Z,22.42
2022-11-09T03:14:21.182Z,25.10
2022-11-09T03:16:51.156Z,18.00
2022-11-09T03:19:20.356Z,21.52
2022-11-09T03:21:49.312Z,21.63
2022-11-09T03:24:18.219Z,28.95
2022-11-09T03:26:47.088Z,19.95
2022-11-09T03:29:16.005Z,21.15
2022-11-09T03:31:45.012Z,20.73
2022-11-09T03:34:13.986Z,21.45
2022-11-09T03:36:43.257Z,18.60
2022-11-09T03:39:12.407Z,19.90
2022-11-09T03:41:41.561Z,27.55
2022-11-09T03:44:10.537Z,18.75
2022-11-09T03:46:39.513Z,23.50
2022-11-09T03:49:08.528Z,24.02
2022-11-09T03:51:37.529Z,17.77
2022-11-09T03:54:06.466Z,20.08
2022-11-09T03:56:35.474Z,21.60
2022-11-09T03:59:04.352Z,18.10
2022-11-09T04:01:33.536Z,19.42
2022-11-09T04:04:02.418Z,17.10
2022-11-09T04:06:31.619Z,19.98
2022-11-09T04:09:00.599Z,26.25
2022-11-09T04:11:29.565Z,18.67
2022-11-09T04:13:58.701Z,20.30
2022-11-09T04:16:27.770Z,19.00
2022-11-09T04:18:56.963Z,20.40
2022-11-09T04:21:25.911Z,18.27
2022-11-09T04:23:54.818Z,21.90
2022-11-09T04:26:23.685Z,20.83
2022-11-09T04:28:52.723Z,21.02
2022-11-09T04:31:25.561Z,21.20
2022-11-09T04:33:56.996Z,18.27
2022-11-09T04:36:26.191Z,19.92
2022-11-09T04:38:55.092Z,15.65
2022-11-09T04:41:24.072Z,13.77
2022-11-09T04:43:52.918Z,22.15
2022-11-09T04:46:21.926Z,19.50
2022-11-09T04:48:50.904Z,38.80
2022-11-09T04:51:19.870Z,23.90
2022-11-09T04:53:48.867Z,38.25
2022-11-09T04:56:17.743Z,20.88
2022-11-09T04:58:46.637Z,25.77
2022-11-09T05:01:16.558Z,14.77
2022-11-09T05:03:45.651Z,15.50
2022-11-09T05:06:32.663Z,20.25
2022-11-09T05:09:07.974Z,15.68
2022-11-09T05:11:38.288Z,14.45
2022-11-09T05:14:07.281Z,15.77
2022-11-09T05:16:36.509Z,14.70
2022-11-09T05:19:05.757Z,17.13
2022-11-09T05:21:34.777Z,15.10
2022-11-09T05:24:04.162Z,14.98
2022-11-09T05:26:34.404Z,18.27
2022-11-09T05:29:08.240Z,16.80
2022-11-09T05:31:38.029Z,16.05
2022-11-09T05:34:08.515Z,12.57
2022-11-09T05:36:37.529Z,13.27
2022-11-09T05:39:06.420Z,15.80
2022-11-09T05:41:35.691Z,16.20
2022-11-09T05:44:04.650Z,13.20
2022-11-09T05:46:35.198Z,12.80
2022-11-09T05:49:04.518Z,19.77
2022-11-09T05:51:33.513Z,13.18
2022-11-09T05:54:02.437Z,17.73
2022-11-09T05:56:31.404Z,16.75
2022-11-09T05:59:00.337Z,15.35
2022-11-09T06:01:29.319Z,15.73
2022-11-09T06:03:58.218Z,32.65
2022-11-09T06:06:27.325Z,15.82
2022-11-09T06:08:56.327Z,14.98
2022-11-09T06:11:25.359Z,16.58
2022-11-09T06:13:54.810Z,14.88
2022-11-09T06:16:23.796Z,16.60
2022-11-09T06:18:53.022Z,17.58
2022-11-09T06:21:22.098Z,20.05
2022-11-09T06:23:51.158Z,12.40
2022-11-09T06:26:20.143Z,15.52
2022-11-09T06:28:49.037Z,13.98
2022-11-09T06:31:21.806Z,16.48
2022-11-09T06:33:50.955Z,56.97
2022-11-09T06:36:20.137Z,13.90
2022-11-09T06:38:55.437Z,16.65
2022-11-09T06:41:24.404Z,11.48
2022-11-09T06:43:53.339Z,18.23
2022-11-09T06:46:22.401Z,12.48
2022-11-09T06:48:54.519Z,14.68
2022-11-09T06:51:23.805Z,14.90
2022-11-09T06:53:52.949Z,12.70
2022-11-09T06:56:22.527Z,13.52
2022-11-09T06:58:51.553Z,18.20
2022-11-09T07:01:23.883Z,13.93
2022-11-09T07:03:52.920Z,14.98
2022-11-09T07:06:22.030Z,16.80
2022-11-09T07:08:51.076Z,15.10
2022-11-09T07:11:20.767Z,11.85
2022-11-09T07:13:54.754Z,13.75
2022-11-09T07:16:26.301Z,12.70
2022-11-09T07:18:55.288Z,36.45
2022-11-09T07:21:24.317Z,18.58
2022-11-09T07:23:53.394Z,15.10
2022-11-09T07:26:22.368Z,15.02
2022-11-09T07:28:51.288Z,15.40
2022-11-09T07:31:20.376Z,12.38
2022-11-09T07:33:50.740Z,14.23
2022-11-09T07:36:21.613Z,18.13
2022-11-09T07:38:50.892Z,13.32
2022-11-09T07:41:19.855Z,23.75
2022-11-09T07:43:48.866Z,12.60
2022-11-09T07:46:17.968Z,17.90
2022-11-09T07:48:46.854Z,13.27
2022-11-09T07:51:15.836Z,14.82
2022-11-09T07:53:44.775Z,11.52
2022-11-09T07:56:14.264Z,13.85
2022-11-09T07:58:43.317Z,15.70
2022-11-09T08:01:13.397Z,10.68
2022-11-09T08:03:42.293Z,11.85
2022-11-09T08:06:15.637Z,12.93
2022-11-09T08:08:47.224Z,14.95
2022-11-09T08:11:19.039Z,11.30
2022-11-09T08:13:48.094Z,12.20
2022-11-09T08:16:17.119Z,16.58
2022-11-09T08:18:46.198Z,15.68
2022-11-09T08:21:15.107Z,12.00
2022-11-09T08:23:44.617Z,12.68
2022-11-09T08:26:14.130Z,11.57
2022-11-09T08:28:43.049Z,28.88
2022-11-09T08:31:12.400Z,12.40
2022-11-09T08:33:43.550Z,14.25
2022-11-09T08:36:17.193Z,12.98
2022-11-09T08:38:46.923Z,15.30
2022-11-09T08:41:16.080Z,13.52
2022-11-09T08:43:45.008Z,14.68
2022-11-09T08:46:14.053Z,11.73
2022-11-09T08:48:42.980Z,15.60
2022-11-09T08:51:11.926Z,9.93
2022-11-09T08:53:40.833Z,11.25
2022-11-09T08:56:10.813Z,15.90
2022-11-09T08:58:40.904Z,15.35
2022-11-09T09:01:17.065Z,11.60
2022-11-09T09:03:48.136Z,10.13
2022-11-09T09:06:17.046Z,20.05
2022-11-09T09:08:45.993Z,11.68
2022-11-09T09:11:15.018Z,20.67
2022-11-09T09:13:44.036Z,10.68
2022-11-09T09:16:14.893Z,10.15
2022-11-09T09:18:45.184Z,7.60
2022-11-09T09:21:14.601Z,10.80
2022-11-09T09:23:43.680Z,17.33
2022-11-09T09:26:12.591Z,33.80
2022-11-09T09:28:41.853Z,19.10
2022-11-09T09:31:17.185Z,11.10
2022-11-09T09:33:48.594Z,22.38
2022-11-09T09:36:23.007Z,11.10
2022-11-09T09:38:56.366Z,9.27
2022-11-09T09:41:37.077Z,8.38
2022-11-09T09:44:25.718Z,9.98
2022-11-09T09:47:20.767Z,8.75
2022-11-09T09:50:21.673Z,11.65
2022-11-09T09:53:17.570Z,34.10
2022-11-09T09:55:51.647Z,14.70
2022-11-09T09:58:26.603Z,15.45
2022-11-09T10:01:13.276Z,19.05
2022-11-09T10:03:42.380Z,19.05
2022-11-09T10:06:34.433Z,19.70
2022-11-09T10:09:27.730Z,13.23
2022-11-09T10:12:14.806Z,23.90
2022-11-09T10:14:52.577Z,14.65
2022-11-09T10:18:15.681Z,12.25
2022-11-09T10:21:02.984Z,18.73
2022-11-09T10:24:02.416Z,15.98
2022-11-09T10:26:54.281Z,14.23
2022-11-09T10:29:27.377Z,29.15
2022-11-09T10:32:07.205Z,20.45
2022-11-09T10:34:43.748Z,24.27
2022-11-09T10:37:17.481Z,23.42
2022-11-09T10:42:20.663Z,40.75
2022-11-09T10:44:49.927Z,33.58
2022-11-09T10:47:20.236Z,34.83
2022-11-09T10:50:05.471Z,23.70
2022-11-09T10:52:47.037Z,30.10
2022-11-09T10:55:28.339Z,29.00
2022-11-09T10:58:03.869Z,34.63
2022-11-09T11:00:33.332Z,35.85
2022-11-09T11:03:20.645Z,29.40
2022-11-09T11:05:59.951Z,32.00
2022-11-09T11:08:41.204Z,26.02
2022-11-09T11:11:35.391Z,31.65
2022-11-09T11:14:36.071Z,28.90
2022-11-09T11:17:05.157Z,33.13
2022-11-09T11:19:46.457Z,39.42
2022-11-09T11:22:24.890Z,31.13
2022-11-09T11:25:01.823Z,35.15
2022-11-09T11:27:50.218Z,33.47
2022-11-09T11:30:49.193Z,44.47
2022-11-09T11:33:31.024Z,36.17
2022-11-09T11:36:17.955Z,40.78
2022-11-09T11:38:55.483Z,36.20
2022-11-09T11:42:01.751Z,32.00
2022-11-09T11:48:34.177Z,39.38
2022-11-09T11:51:29.571Z,35.70
2022-11-09T11:54:20.088Z,45.03
2022-11-09T11:57:25.525Z,40.88
2022-11-09T12:00:21.910Z,41.75
2022-11-09T12:03:16.114Z,42.78
2022-11-09T12:05:51.350Z,42.13
2022-11-09T12:08:42.751Z,50.78
2022-11-09T12:11:42.151Z,42.35
2022-11-09T12:15:01.793Z,42.53
2022-11-09T12:18:02.827Z,49.47
2022-11-09T12:21:13.184Z,48.33
2022-11-09T12:24:09.417Z,52.03
2022-11-09T12:27:17.659Z,50.80
2022-11-09T12:29:50.063Z,41.50
2022-11-09T12:32:24.885Z,45.60
2022-11-09T12:35:22.259Z,49.08
2022-11-09T12:38:20.017Z,38.35
2022-11-09T12:40:59.578Z,50.90
2022-11-09T12:43:40.629Z,52.15
2022-11-09T12:46:11.376Z,39.70
2022-11-09T12:48:40.913Z,45.90
2022-11-09T12:51:12.175Z,49.30
2022-11-09T12:53:41.631Z,55.95
2022-11-09T12:56:34.795Z,43.33
2022-11-09T12:59:51.299Z,38.40
2022-11-09T13:02:36.585Z,45.13
2022-11-09T13:05:29.518Z,44.45
2022-11-09T13:10:45.274Z,46.22
2022-11-09T13:13:16.235Z,42.95
2022-11-09T13:16:14.692Z,47.30
2022-11-09T13:18:49.004Z,38.78
2022-11-09T13:21:31.844Z,38.15
2022-11-09T13:24:36.267Z,52.88
2022-11-09T13:27:05.987Z,39.72
2022-11-09T13:29:43.807Z,37.83
2022-11-09T13:32:17.467Z,43.83
2022-11-09T13:35:01.101Z,44.80
2022-11-09T13:38:29.483Z,44.58
2022-11-09T13:41:27.274Z,45.33
2022-11-09T13:44:26.562Z,41.45
2022-11-09T13:46:56.119Z,39.45
2022-11-09T13:49:48.658Z,47.25
2022-11-09T13:52:40.650Z,45.67
2022-11-09T13:55:25.973Z,42.75
2022-11-09T13:58:07.432Z,41.13
2022-11-09T14:00:39.333Z,36.67
2022-11-09T14:03:24.654Z,37.63
2022-11-09T14:06:00.483Z,45.42
2022-11-09T14:08:33.900Z,41.35
2022-11-09T14:11:42.253Z,53.55
2022-11-09T14:14:35.591Z,48.00
2022-11-09T14:17:31.544Z,49.53
2022-11-09T14:20:14.036Z,42.22
2022-11-09T14:22:43.239Z,47.35
2022-11-09T14:25:20.329Z,51.40
2022-11-09T14:27:58.469Z,44.28
2022-11-09T14:30:30.411Z,50.67
2022-11-09T14:33:00.579Z,41.53
2022-11-09T14:35:33.725Z,45.72
2022-11-09T14:38:15.375Z,47.73
2022-11-09T14:40:49.447Z,49.97
2022-11-09T14:46:01.664Z,53.88
2022-11-09T14:48:32.949Z,58.45
2022-11-09T14:51:23.357Z,53.40
2022-11-09T14:53:52.954Z,47.05
2022-11-09T14:56:23.179Z,45.42
2022-11-09T14:58:58.275Z,56.75
2022-11-09T15:01:29.461Z,48.08
2022-11-09T15:04:18.064Z,47.08
2022-11-09T15:06:50.375Z,47.22
2022-11-09T15:09:25.677Z,57.35
2022-11-09T15:11:57.696Z,45.63
2022-11-09T15:14:37.000Z,45.67
2022-11-09T15:17:32.604Z,41.90
2022-11-09T15:20:06.692Z,45.03
2022-11-09T15:26:11.160Z,38.80
2022-11-09T15:28:47.755Z,38.50
2022-11-09T15:31:19.886Z,42.72
2022-11-09T15:33:54.434Z,43.08
2022-11-09T15:36:26.118Z,42.40
2022-11-09T15:39:10.311Z,39.72
2022-11-09T15:41:54.553Z,40.22
2022-11-09T15:47:02.519Z,42.13
2022-11-09T15:50:22.232Z,40.72
2022-11-09T15:52:51.976Z,45.60
2022-11-09T15:55:32.424Z,40.90
2022-11-09T15:58:17.026Z,42.72
2022-11-09T16:00:52.313Z,34.83
2022-11-09T16:03:21.408Z,34.20
2022-11-09T16:06:16.117Z,35.55
2022-11-09T16:11:13.501Z,36.25
2022-11-09T16:13:42.594Z,40.28
2022-11-09T16:16:13.498Z,31.13
2022-11-09T16:18:42.508Z,37.80
2022-11-09T16:21:17.113Z,26.33
2022-11-09T16:23:46.126Z,35.72
2022-11-09T16:26:22.064Z,31.65
2022-11-09T16:28:51.112Z,26.60
2022-11-09T16:31:41.148Z,38.95
2022-11-09T16:34:09.087Z,33.78
2022-11-09T16:36:41.641Z,35.40
2022-11-09T16:39:18.135Z,27.52
2022-11-09T16:41:50.529Z,32.85
2022-11-09T16:44:24.871Z,29.52
2022-11-09T16:46:54.247Z,30.33
2022-11-09T16:49:23.292Z,34.97
2022-11-09T16:51:52.161Z,35.03
2022-11-09T16:54:21.060Z,30.75
2022-11-09T16:56:50.158Z,30.50
2022-11-09T16:59:19.084Z,28.40
2022-11-09T17:01:58.261Z,32.25
2022-11-09T17:04:27.927Z,27.50
2022-11-09T17:06:56.861Z,31.98
2022-11-09T17:09:25.975Z,28.30
2022-11-09T17:11:54.909Z,29.63
2022-11-09T17:14:23.916Z,26.85
2022-11-09T17:16:52.870Z,29.77
2022-11-09T17:19:21.750Z,32.95
2022-11-09T17:21:50.655Z,31.70
2022-11-09T17:24:19.573Z,29.30
2022-11-09T17:26:48.506Z,28.85
2022-11-09T17:29:17.549Z,27.50
2022-11-09T17:31:46.484Z,25.13
2022-11-09T17:34:17.494Z,23.85
2022-11-09T17:37:03.704Z,22.13
2022-11-09T17:39:34.735Z,26.05
2022-11-09T17:42:03.645Z,27.27
2022-11-09T17:44:32.618Z,21.25
2022-11-09T17:47:01.538Z,25.58
2022-11-09T17:49:30.625Z,24.70
2022-11-09T17:51:59.505Z,25.15
2022-11-09T17:54:35.487Z,26.27
2022-11-09T17:57:06.017Z,23.05
2022-11-09T17:59:35.069Z,28.63
2022-11-09T18:02:04.025Z,33.42
2022-11-09T18:04:32.960Z,29.60
2022-11-09T18:07:02.327Z,33.55
2022-11-09T18:09:46.527Z,27.88
2022-11-09T18:12:17.595Z,37.03
2022-11-09T18:14:46.594Z,42.13
2022-11-09T18:17:15.701Z,45.90
2022-11-09T18:19:44.827Z,30.05
2022-11-09T18:22:13.802Z,30.60
2022-11-09T18:24:42.770Z,28.75
2022-11-09T18:27:11.910Z,28.20
2022-11-09T18:29:40.920Z,26.92
2022-11-09T18:32:09.818Z,30.25
2022-11-09T18:34:38.778Z,29.67
2022-11-09T18:37:07.702Z,25.30
2022-11-09T18:39:36.590Z,28.45
2022-11-09T18:42:06.408Z,27.48
2022-11-09T18:44:35.423Z,30.23
2022-11-09T18:47:05.827Z,32.63
2022-11-09T18:49:34.974Z,27.17
2022-11-09T18:52:04.293Z,30.55
2022-11-09T18:54:33.642Z,33.25
2022-11-09T18:57:02.530Z,28.83
2022-11-09T18:59:31.363Z,31.73
2022-11-09T19:02:00.412Z,28.92
2022-11-09T19:04:29.346Z,34.28
2022-11-09T19:06:58.283Z,35.53
2022-11-09T19:09:30.530Z,34.03
2022-11-09T19:12:01.375Z,30.48
2022-11-09T19:14:31.410Z,34.97
2022-11-09T19:17:00.435Z,37.00
2022-11-09T19:19:29.438Z,26.88
2022-11-09T19:21:59.145Z,30.05
2022-11-09T19:24:30.948Z,28.42
2022-11-09T19:27:00.080Z,26.52
2022-11-09T19:29:28.925Z,30.70
2022-11-09T19:31:57.852Z,27.15
2022-11-09T19:34:26.781Z,35.83
2022-11-09T19:36:56.029Z,29.67
2022-11-09T19:39:27.310Z,31.92
2022-11-09T19:42:00.088Z,37.35
2022-11-09T19:44:29.030Z,39.80
2022-11-09T19:46:59.359Z,34.88
2022-11-09T19:49:29.488Z,32.85
2022-11-09T19:51:58.471Z,37.10
2022-11-09T19:54:27.388Z,33.83
2022-11-09T19:56:56.493Z,37.13
2022-11-09T19:59:25.689Z,31.40
2022-11-09T20:01:54.573Z,33.72
2022-11-09T20:04:23.465Z,36.13
2022-11-09T20:06:52.422Z,32.13
2022-11-09T20:09:21.385Z,35.10
2022-11-09T20:12:08.405Z,38.15
2022-11-09T20:14:37.358Z,36.22
2022-11-09T20:17:06.834Z,34.05
2022-11-09T20:19:35.811Z,36.00
2022-11-09T20:22:04.938Z,38.03
2022-11-09T20:24:33.835Z,39.25
2022-11-09T20:27:02.786Z,36.08
2022-11-09T20:29:31.684Z,34.33
2022-11-09T20:32:00.663Z,39.20
2022-11-09T20:34:30.906Z,31.42
2022-11-09T20:37:00.095Z,32.97
2022-11-09T20:39:29.062Z,33.95
2022-11-09T20:41:57.959Z,42.22
2022-11-09T20:44:26.862Z,41.53
2022-11-09T20:46:55.831Z,40.33
2022-11-09T20:49:24.729Z,36.78
2022-11-09T20:51:53.648Z,41.13
2022-11-09T20:54:22.891Z,34.65
2022-11-09T20:56:51.782Z,32.88
2022-11-09T20:59:20.789Z,32.92
2022-11-09T21:01:49.832Z,39.03
2022-11-09T21:04:18.856Z,35.72
2022-11-09T21:06:47.808Z,38.08
2022-11-09T21:09:17.761Z,38.38
2022-11-09T21:12:05.679Z,38.22
2022-11-09T21:14:34.603Z,33.90
2022-11-09T21:17:03.537Z,41.63
2022-11-09T21:19:32.569Z,37.53
2022-11-09T21:22:01.842Z,34.33
2022-11-09T21:24:49.071Z,39.35
2022-11-09T21:27:36.030Z,39.65
2022-11-09T21:30:05.240Z,41.45
2022-11-09T21:32:34.233Z,36.47
2022-11-09T21:35:03.231Z,39.78
2022-11-09T21:37:32.226Z,38.28
2022-11-09T21:40:01.124Z,37.08
2022-11-09T21:42:30.027Z,45.85
2022-11-09T21:44:58.949Z,42.08
2022-11-09T21:47:27.880Z,38.25
2022-11-09T21:49:56.779Z,35.75
2022-11-09T21:52:25.640Z,37.15
2022-11-09T21:54:54.623Z,38.25
2022-11-09T21:57:23.770Z,35.03
2022-11-09T21:59:52.672Z,34.55
2022-11-09T22:02:21.554Z,39.67
2022-11-09T22:04:50.431Z,36.70
2022-11-09T22:07:19.765Z,36.65
2022-11-09T22:10:09.303Z,33.30
2022-11-09T22:12:57.889Z,34.30
2022-11-09T22:15:45.161Z,35.72
2022-11-09T22:18:36.732Z,33.80
2022-11-09T22:21:05.949Z,36.22
2022-11-09T22:23:34.969Z,34.35
2022-11-09T22:26:04.132Z,34.88
2022-11-09T22:28:34.424Z,30.67
2022-11-09T22:31:04.569Z,37.03
2022-11-09T22:33:34.180Z,33.88
2022-11-09T22:36:05.806Z,31.63
2022-11-09T22:38:35.351Z,34.45
2022-11-09T22:41:07.247Z,34.67
2022-11-09T22:43:37.603Z,33.28
2022-11-09T22:46:17.494Z,36.13
2022-11-09T22:48:46.774Z,33.65
2022-11-09T22:51:17.787Z,36.58
2022-11-09T22:53:50.927Z,37.97
2022-11-09T22:56:20.379Z,33.33
2022-11-09T22:58:49.260Z,37.92
2022-11-09T23:01:20.057Z,32.78
2022-11-09T23:03:49.247Z,35.85
2022-11-09T23:06:21.621Z,37.85
2022-11-09T23:08:50.908Z,32.00
2022-11-09T23:11:22.050Z,32.38
2022-11-09T23:13:53.308Z,34.13
2022-11-09T23:16:23.930Z,34.53
2022-11-09T23:18:55.513Z,40.53
2022-11-09T23:21:32.311Z,30.13
2022-11-09T23:24:04.173Z,30.17
2022-11-09T23:26:34.117Z,37.58
2022-11-09T23:29:03.167Z,28.95
2022-11-09T23:31:32.049Z,38.90
2022-11-09T23:34:02.097Z,31.42
2022-11-09T23:36:33.770Z,40.20
2022-11-09T23:39:02.756Z,78.07
2022-11-09T23:41:31.721Z,32.63
2022-11-09T23:44:00.897Z,38.15
2022-11-09T23:46:29.889Z,41.75
2022-11-09T23:48:58.760Z,37.75
2022-11-09T23:51:27.753Z,37.22
2022-11-09T23:53:56.671Z,34.25
2022-11-09T23:56:25.609Z,41.05
2022-11-09T23:58:54.728Z,37.00
